METAR Data
IDs: Format: Raw Decoded Include TAF

Data at: 0239 UTC 29 Nov 2020

METAR for:KOOA (Oskaloosa Muni, IA, US)
Text:KOOA 290235Z AUTO 22010KT 10SM CLR 05/02 A3004 RMK AO2 T00520017
Temperature: 5.2°C ( 41°F)
Dewpoint: 1.7°C ( 35°F) [RH = 78%]
Pressure (altimeter):30.04 inches Hg (1017.4 mb)
Winds:from the SW (220 degrees) at 12 MPH (10 knots; 5.1 m/s)
Visibility:10 or more sm (16+ km)
Ceiling:at least 12,000 feet AGL
Clouds:sky clear below 12,000 feet AGL
QC Flag:automated observation with no human augmentation